createdAt,value
2023-01-13T00:02:15.413Z,7.90
2023-01-13T00:07:18.316Z,7.91
2023-01-13T00:12:21.660Z,7.90
2023-01-13T00:17:24.751Z,7.89
2023-01-13T00:22:27.740Z,7.88
2023-01-13T00:27:30.796Z,7.88
2023-01-13T00:32:33.805Z,7.88
2023-01-13T00:37:38.400Z,7.88
2023-01-13T00:43:00.062Z,7.88
2023-01-13T00:48:03.064Z,7.85
2023-01-13T00:53:05.969Z,7.81
2023-01-13T00:58:08.902Z,7.78
2023-01-13T01:03:12.473Z,7.76
2023-01-13T01:08:15.439Z,7.76
2023-01-13T01:13:18.405Z,7.78
2023-01-13T01:18:21.374Z,7.78
2023-01-13T01:23:24.330Z,7.80
2023-01-13T01:28:27.478Z,7.83
2023-01-13T01:33:30.751Z,7.85
2023-01-13T01:38:34.055Z,7.85
2023-01-13T01:43:59.367Z,7.86
2023-01-13T01:49:07.695Z,7.86
2023-01-13T01:54:15.283Z,7.84
2023-01-13T01:59:18.994Z,7.82
2023-01-13T02:04:32.342Z,7.80
2023-01-13T02:09:36.788Z,7.73
2023-01-13T02:14:41.992Z,7.65
2023-01-13T02:20:14.876Z,7.57
2023-01-13T02:25:39.249Z,7.52
2023-01-13T02:31:11.083Z,7.48
2023-01-13T02:36:24.569Z,7.45
2023-01-13T02:42:32.635Z,7.45
2023-01-13T02:47:41.478Z,7.44
2023-01-13T02:52:59.892Z,7.42
2023-01-13T02:58:07.664Z,7.42
2023-01-13T03:03:10.522Z,7.40
2023-01-13T03:08:34.345Z,7.36
2023-01-13T03:13:58.823Z,7.35
2023-01-13T03:19:31.808Z,7.35
2023-01-13T03:24:42.563Z,7.36
2023-01-13T03:29:59.174Z,7.38
2023-01-13T03:35:13.319Z,7.40
2023-01-13T03:40:23.807Z,7.42
2023-01-13T03:45:27.851Z,7.42
2023-01-13T03:50:40.804Z,7.44
2023-01-13T03:55:52.979Z,7.45
2023-01-13T04:01:07.465Z,7.45
2023-01-13T04:06:38.330Z,7.46
2023-01-13T04:11:53.302Z,7.46
2023-01-13T04:16:57.068Z,7.46
2023-01-13T04:22:00.153Z,7.47
2023-01-13T04:27:04.182Z,7.47
2023-01-13T04:32:06.994Z,7.49
2023-01-13T04:37:09.842Z,7.51
2023-01-13T04:42:13.204Z,7.52
2023-01-13T04:47:16.035Z,7.52
2023-01-13T04:52:18.981Z,7.53
2023-01-13T04:57:21.879Z,7.53
2023-01-13T05:02:24.758Z,7.54
2023-01-13T05:07:27.712Z,7.55
2023-01-13T05:12:49.369Z,7.56
2023-01-13T05:17:52.569Z,7.57
2023-01-13T05:23:14.087Z,7.59
2023-01-13T05:28:17.106Z,7.60
2023-01-13T05:33:20.811Z,7.61
2023-01-13T05:38:23.697Z,7.62
2023-01-13T05:43:27.939Z,7.62
2023-01-13T05:48:38.155Z,7.62
2023-01-13T05:53:41.419Z,7.63
2023-01-13T05:58:44.866Z,7.62
2023-01-13T06:03:47.731Z,7.62
2023-01-13T06:08:50.590Z,7.61
2023-01-13T06:13:53.456Z,7.59
2023-01-13T06:18:56.313Z,7.59
2023-01-13T06:23:59.861Z,7.58
2023-01-13T06:29:02.715Z,7.60
2023-01-13T06:34:13.499Z,7.61
2023-01-13T06:39:22.006Z,7.60
2023-01-13T06:44:25.210Z,7.61
2023-01-13T06:49:28.294Z,7.64
2023-01-13T06:54:31.243Z,7.65
2023-01-13T06:59:35.310Z,7.67
2023-01-13T07:04:38.188Z,7.68
2023-01-13T07:09:41.102Z,7.70
2023-01-13T07:15:02.626Z,7.72
2023-01-13T07:20:06.885Z,7.73
2023-01-13T07:25:11.427Z,7.74
2023-01-13T07:30:14.647Z,7.75
2023-01-13T07:35:21.908Z,7.79
2023-01-13T07:40:24.870Z,7.82
2023-01-13T07:45:27.876Z,7.84
2023-01-13T07:50:30.835Z,7.87
2023-01-13T07:55:33.834Z,7.89
2023-01-13T08:00:38.827Z,7.92
2023-01-13T08:05:41.843Z,7.95
2023-01-13T08:10:45.179Z,7.96
2023-01-13T08:15:58.735Z,7.99
2023-01-13T08:21:05.569Z,8.03
2023-01-13T08:26:14.290Z,8.05
2023-01-13T08:31:17.404Z,8.09
2023-01-13T08:36:20.479Z,8.14
2023-01-13T08:41:41.965Z,8.16
2023-01-13T08:46:44.901Z,8.18
2023-01-13T08:51:48.405Z,8.18
2023-01-13T08:56:51.388Z,8.20
2023-01-13T09:01:54.476Z,8.21
2023-01-13T09:06:57.966Z,8.23
2023-01-13T09:12:19.769Z,8.24
2023-01-13T09:17:25.902Z,8.26
2023-01-13T09:22:28.902Z,8.25
2023-01-13T09:27:31.904Z,8.26
2023-01-13T09:32:35.260Z,8.28
2023-01-13T09:37:40.991Z,8.29
2023-01-13T09:43:11.134Z,8.31
2023-01-13T09:48:52.255Z,8.36
2023-01-13T09:54:05.253Z,8.43
2023-01-13T09:59:12.361Z,8.49
2023-01-13T10:04:16.159Z,8.52
2023-01-13T10:09:27.343Z,8.54
2023-01-13T10:14:57.255Z,8.55
2023-01-13T10:20:18.621Z,8.59
2023-01-13T10:26:02.825Z,8.61
2023-01-13T10:31:14.925Z,8.63
2023-01-13T10:36:23.081Z,8.64
2023-01-13T10:41:27.913Z,8.64
2023-01-13T10:46:35.159Z,8.64
2023-01-13T10:51:37.996Z,8.71
2023-01-13T10:56:46.245Z,8.73
2023-01-13T11:02:19.874Z,8.73
2023-01-13T11:07:40.329Z,8.74
2023-01-13T11:13:19.600Z,8.72
2023-01-13T11:18:37.901Z,8.72
2023-01-13T11:23:50.230Z,8.74
2023-01-13T11:29:18.006Z,8.80
2023-01-13T11:34:40.239Z,8.82
2023-01-13T11:40:04.182Z,8.82
2023-01-13T11:45:44.432Z,8.80
2023-01-13T11:51:15.141Z,8.84
2023-01-13T11:57:08.591Z,8.85
2023-01-13T12:02:52.209Z,8.83
2023-01-13T12:08:11.076Z,8.77
2023-01-13T12:13:24.315Z,8.74
2023-01-13T12:19:10.608Z,8.74
2023-01-13T12:25:07.306Z,8.74
2023-01-13T12:30:41.066Z,8.78
2023-01-13T12:36:07.518Z,8.77
2023-01-13T12:42:26.463Z,8.76
2023-01-13T12:47:40.290Z,8.75
2023-01-13T12:52:45.165Z,8.74
2023-01-13T12:58:06.078Z,8.73
2023-01-13T13:03:15.848Z,8.72
2023-01-13T13:08:51.031Z,8.72
2023-01-13T13:13:54.028Z,8.71
2023-01-13T13:19:18.701Z,8.72
2023-01-13T13:24:21.767Z,8.73
2023-01-13T13:29:57.659Z,8.72
2023-01-13T13:35:06.308Z,8.72
2023-01-13T13:40:29.599Z,8.74
2023-01-13T13:45:51.349Z,8.76
2023-01-13T13:51:02.266Z,8.78
2023-01-13T13:56:17.991Z,8.78
2023-01-13T14:01:30.301Z,8.78
2023-01-13T14:06:34.166Z,8.77
2023-01-13T14:11:37.095Z,8.76
2023-01-13T14:16:41.318Z,8.74
2023-01-13T14:21:48.492Z,8.72
2023-01-13T14:26:53.331Z,8.71
2023-01-13T14:31:56.296Z,8.69
2023-01-13T14:37:00.048Z,8.66
2023-01-13T14:42:03.178Z,8.64
2023-01-13T14:47:19.840Z,8.61
2023-01-13T14:52:25.611Z,8.58
2023-01-13T14:57:39.601Z,8.59
2023-01-13T15:02:57.887Z,8.59
2023-01-13T15:08:05.666Z,8.59
2023-01-13T15:13:24.589Z,8.59
2023-01-13T15:18:29.286Z,8.60
2023-01-13T15:23:32.168Z,8.61
2023-01-13T15:28:35.175Z,8.63
2023-01-13T15:33:38.387Z,8.63
2023-01-13T15:38:43.726Z,8.63
2023-01-13T15:44:05.589Z,8.63
2023-01-13T15:49:27.438Z,8.64
2023-01-13T15:54:30.894Z,8.64
2023-01-13T15:59:33.989Z,8.66
2023-01-13T16:04:36.870Z,8.63
2023-01-13T16:09:39.829Z,8.59
2023-01-13T16:14:42.932Z,8.55
2023-01-13T16:19:46.793Z,8.53
2023-01-13T16:24:49.789Z,8.50
2023-01-13T16:29:53.265Z,8.48
2023-01-13T16:34:56.261Z,8.45
2023-01-13T16:39:59.343Z,8.43
2023-01-13T16:45:08.600Z,8.40
2023-01-13T16:50:23.603Z,8.38
2023-01-13T16:55:28.104Z,8.36
2023-01-13T17:00:32.213Z,8.35
2023-01-13T17:05:39.698Z,8.32
2023-01-13T17:10:42.563Z,8.31
2023-01-13T17:15:46.326Z,8.30
2023-01-13T17:20:49.203Z,8.28
2023-01-13T17:25:54.914Z,8.26
2023-01-13T17:30:57.960Z,8.23
2023-01-13T17:36:01.801Z,8.19
2023-01-13T17:41:05.501Z,8.18
2023-01-13T17:46:11.222Z,8.20
2023-01-13T17:51:16.773Z,8.19
2023-01-13T17:56:19.977Z,8.15
2023-01-13T18:01:23.431Z,8.08
2023-01-13T18:06:27.142Z,8.05
2023-01-13T18:11:30.111Z,8.04
2023-01-13T18:16:33.385Z,8.07
2023-01-13T18:21:55.331Z,8.10
2023-01-13T18:27:17.979Z,8.10
2023-01-13T18:32:26.539Z,8.07
2023-01-13T18:37:29.904Z,8.05
2023-01-13T18:42:51.556Z,8.05
2023-01-13T18:47:58.085Z,8.04
2023-01-13T18:53:02.937Z,7.98
2023-01-13T18:58:06.402Z,7.87
2023-01-13T19:03:14.240Z,7.80
2023-01-13T19:08:17.748Z,7.78
2023-01-13T19:13:22.149Z,7.72
2023-01-13T19:18:27.875Z,7.65
2023-01-13T19:23:32.435Z,7.61
2023-01-13T19:28:40.206Z,7.58
2023-01-13T19:33:43.486Z,7.59
2023-01-13T19:38:46.376Z,7.59
2023-01-13T19:44:08.343Z,7.56
2023-01-13T19:49:11.491Z,7.50
2023-01-13T19:54:14.402Z,7.39
2023-01-13T19:59:22.958Z,7.26
2023-01-13T20:04:33.929Z,7.12
2023-01-13T20:09:37.070Z,6.97
2023-01-13T20:14:41.534Z,6.83
2023-01-13T20:19:44.958Z,6.69
2023-01-13T20:24:52.374Z,6.58
2023-01-13T20:29:55.386Z,6.49
2023-01-13T20:34:58.300Z,6.42
2023-01-13T20:40:03.986Z,6.34
2023-01-13T20:45:07.842Z,6.27
2023-01-13T20:50:11.922Z,6.20
2023-01-13T20:55:15.046Z,6.12
2023-01-13T21:00:19.123Z,6.07
2023-01-13T21:05:22.006Z,6.00
2023-01-13T21:10:24.904Z,5.93
2023-01-13T21:15:28.061Z,5.87
2023-01-13T21:20:33.630Z,5.80
2023-01-13T21:25:40.167Z,5.76
2023-01-13T21:30:44.748Z,5.71
2023-01-13T21:35:47.676Z,5.69
2023-01-13T21:41:02.823Z,5.67
2023-01-13T21:46:33.439Z,5.68
2023-01-13T21:51:36.711Z,5.69
2023-01-13T21:56:39.725Z,5.68
2023-01-13T22:01:57.103Z,5.65
2023-01-13T22:07:06.760Z,5.62
2023-01-13T22:12:09.781Z,5.58
2023-01-13T22:17:15.484Z,5.53
2023-01-13T22:22:19.044Z,5.45
2023-01-13T22:27:29.124Z,5.40
2023-01-13T22:32:37.627Z,5.39
2023-01-13T22:37:41.334Z,5.34
2023-01-13T22:42:44.205Z,5.32
2023-01-13T22:47:48.070Z,5.28
2023-01-13T22:52:50.980Z,5.22
2023-01-13T22:57:54.418Z,5.16
2023-01-13T23:02:57.351Z,5.09
2023-01-13T23:08:00.350Z,5.06
2023-01-13T23:13:03.253Z,5.03
2023-01-13T23:18:06.131Z,5.04
2023-01-13T23:23:09.037Z,5.05
2023-01-13T23:28:11.888Z,5.12
2023-01-13T23:33:15.061Z,5.21
2023-01-13T23:38:17.914Z,5.30
2023-01-13T23:43:21.933Z,5.37
2023-01-13T23:48:24.789Z,5.44
2023-01-13T23:53:35.338Z,5.48
2023-01-13T23:58:38.209Z,5.49
